sensor_id;sensor_type;location;lat;lon;timestamp;pressure;altitude;pressure_sealevel;temperature;humidity
42067;BME280;27734;47.028;28.820;2023-04-27T00:00:06;100020.44;;;7.32;75.26
42067;BME280;27734;47.028;28.820;2023-04-27T00:02:57;100018.75;;;7.32;75.19
42067;BME280;27734;47.028;28.820;2023-04-27T00:05:26;100017.83;;;7.32;75.21
42067;BME280;27734;47.028;28.820;2023-04-27T00:07:55;100023.05;;;7.32;75.33
42067;BME280;27734;47.028;28.820;2023-04-27T00:10:23;100023.05;;;7.32;75.40
42067;BME280;27734;47.028;28.820;2023-04-27T00:12:52;100025.53;;;7.29;75.25
42067;BME280;27734;47.028;28.820;2023-04-27T00:15:21;100026.39;;;7.28;75.33
42067;BME280;27734;47.028;28.820;2023-04-27T00:17:49;100015.03;;;7.27;75.29
42067;BME280;27734;47.028;28.820;2023-04-27T00:20:18;100016.77;;;7.27;74.81
42067;BME280;27734;47.028;28.820;2023-04-27T00:22:47;100014.91;;;7.24;75.06
42067;BME280;27734;47.028;28.820;2023-04-27T00:25:16;100019.25;;;7.24;75.24
42067;BME280;27734;47.028;28.820;2023-04-27T00:27:44;100018.42;;;7.25;74.93
42067;BME280;27734;47.028;28.820;2023-04-27T00:30:14;100026.26;;;7.25;75.07
42067;BME280;27734;47.028;28.820;2023-04-27T00:32:42;100040.13;;;7.24;74.83
42067;BME280;27734;47.028;28.820;2023-04-27T00:35:11;100021.86;;;7.24;75.03
42067;BME280;27734;47.028;28.820;2023-04-27T00:37:40;100026.00;;;7.18;74.53
42067;BME280;27734;47.028;28.820;2023-04-27T00:40:10;100033.05;;;7.21;74.89
42067;BME280;27734;47.028;28.820;2023-04-27T00:42:38;100032.30;;;7.24;74.89
42067;BME280;27734;47.028;28.820;2023-04-27T00:45:10;100040.87;;;7.21;74.74
42067;BME280;27734;47.028;28.820;2023-04-27T00:47:38;100033.96;;;7.22;74.85
42067;BME280;27734;47.028;28.820;2023-04-27T00:50:09;100045.22;;;7.20;74.71
42067;BME280;27734;47.028;28.820;2023-04-27T00:52:39;100030.31;;;7.18;74.64
42067;BME280;27734;47.028;28.820;2023-04-27T00:55:09;100026.95;;;7.20;74.65
42067;BME280;27734;47.028;28.820;2023-04-27T00:57:41;100021.86;;;7.24;75.07
42067;BME280;27734;47.028;28.820;2023-04-27T01:00:13;100021.86;;;7.24;74.72
42067;BME280;27734;47.028;28.820;2023-04-27T01:02:42;100021.04;;;7.25;74.97
42067;BME280;27734;47.028;28.820;2023-04-27T01:05:11;100026.13;;;7.22;74.82
42067;BME280;27734;47.028;28.820;2023-04-27T01:07:40;100032.23;;;7.22;74.50
42067;BME280;27734;47.028;28.820;2023-04-27T01:10:09;100032.17;;;7.20;74.86
42067;BME280;27734;47.028;28.820;2023-04-27T01:12:38;100032.17;;;7.20;74.86
42067;BME280;27734;47.028;28.820;2023-04-27T01:15:10;100026.13;;;7.22;74.93
42067;BME280;27734;47.028;28.820;2023-04-27T01:17:40;100034.02;;;7.23;74.59
42067;BME280;27734;47.028;28.820;2023-04-27T01:20:11;100043.55;;;7.23;74.84
42067;BME280;27734;47.028;28.820;2023-04-27T01:22:39;100041.66;;;7.18;74.77
42067;BME280;27734;47.028;28.820;2023-04-27T01:25:10;100033.89;;;7.20;74.75
42067;BME280;27734;47.028;28.820;2023-04-27T01:27:39;100039.11;;;7.20;74.66
42067;BME280;27734;47.028;28.820;2023-04-27T01:30:08;100031.22;;;7.18;74.43
42067;BME280;27734;47.028;28.820;2023-04-27T01:32:37;100027.70;;;7.18;74.48
42067;BME280;27734;47.028;28.820;2023-04-27T01:35:07;100027.64;;;7.16;74.65
42067;BME280;27734;47.028;28.820;2023-04-27T01:37:36;100038.98;;;7.17;74.53
42067;BME280;27734;47.028;28.820;2023-04-27T01:40:07;100031.97;;;7.16;74.84
42067;BME280;27734;47.028;28.820;2023-04-27T01:42:36;100029.30;;;7.14;74.53
42067;BME280;27734;47.028;28.820;2023-04-27T01:45:07;100040.68;;;7.16;74.70
42067;BME280;27734;47.028;28.820;2023-04-27T01:47:36;100031.97;;;7.16;74.53
42067;BME280;27734;47.028;28.820;2023-04-27T01:50:06;100029.30;;;7.14;74.58
42067;BME280;27734;47.028;28.820;2023-04-27T01:52:35;100028.35;;;7.12;74.76
42067;BME280;27734;47.028;28.820;2023-04-27T01:55:04;100029.17;;;7.11;74.41
42067;BME280;27734;47.028;28.820;2023-04-27T01:57:33;100047.30;;;7.08;74.60
42067;BME280;27734;47.028;28.820;2023-04-27T02:00:02;100032.47;;;7.07;74.65
42067;BME280;27734;47.028;28.820;2023-04-27T02:02:48;100032.47;;;7.07;74.57
42067;BME280;27734;47.028;28.820;2023-04-27T02:05:18;100014.92;;;7.03;74.79
42067;BME280;27734;47.028;28.820;2023-04-27T02:07:47;100020.14;;;7.03;74.80
42067;BME280;27734;47.028;28.820;2023-04-27T02:10:16;100028.78;;;7.02;74.80
42067;BME280;27734;47.028;28.820;2023-04-27T02:12:46;100029.47;;;6.98;75.11
42067;BME280;27734;47.028;28.820;2023-04-27T02:15:14;100020.01;;;7.00;74.84
42067;BME280;27734;47.028;28.820;2023-04-27T02:17:43;100036.34;;;6.96;75.03
42067;BME280;27734;47.028;28.820;2023-04-27T02:20:13;100028.45;;;6.94;74.91
42067;BME280;27734;47.028;28.820;2023-04-27T02:22:42;100031.00;;;6.93;75.22
42067;BME280;27734;47.028;28.820;2023-04-27T02:25:12;100050.06;;;6.92;75.17
42067;BME280;27734;47.028;28.820;2023-04-27T02:27:41;100029.20;;;6.92;75.18
42067;BME280;27734;47.028;28.820;2023-04-27T02:30:11;100030.86;;;6.90;75.31
42067;BME280;27734;47.028;28.820;2023-04-27T02:32:40;100031.74;;;6.90;75.50
42067;BME280;27734;47.028;28.820;2023-04-27T02:35:09;100032.59;;;6.89;75.56
42067;BME280;27734;47.028;28.820;2023-04-27T02:37:38;100035.00;;;6.84;75.15
42067;BME280;27734;47.028;28.820;2023-04-27T02:40:09;100042.69;;;6.81;75.66
42067;BME280;27734;47.028;28.820;2023-04-27T02:42:38;100042.56;;;6.78;75.66
42067;BME280;27734;47.028;28.820;2023-04-27T02:45:08;100048.45;;;6.74;75.92
42067;BME280;27734;47.028;28.820;2023-04-27T02:47:37;100044.02;;;6.72;76.00
42067;BME280;27734;47.028;28.820;2023-04-27T02:50:07;100060.55;;;6.72;75.90
42067;BME280;27734;47.028;28.820;2023-04-27T02:52:36;100060.34;;;6.68;75.77
42067;BME280;27734;47.028;28.820;2023-04-27T02:55:06;100064.61;;;6.65;76.05
42067;BME280;27734;47.028;28.820;2023-04-27T02:57:35;100054.98;;;6.64;75.95
42067;BME280;27734;47.028;28.820;2023-04-27T03:00:04;100075.70;;;6.61;76.08
42067;BME280;27734;47.028;28.820;2023-04-27T03:02:36;100073.10;;;6.61;76.04
42067;BME280;27734;47.028;28.820;2023-04-27T03:05:06;100085.12;;;6.58;76.68
42067;BME280;27734;47.028;28.820;2023-04-27T03:07:34;100073.70;;;6.56;76.13
42067;BME280;27734;47.028;28.820;2023-04-27T03:10:05;100081.39;;;6.53;76.02
42067;BME280;27734;47.028;28.820;2023-04-27T03:12:34;100091.75;;;6.51;75.93
42067;BME280;27734;47.028;28.820;2023-04-27T03:15:03;100076.88;;;6.48;76.34
42067;BME280;27734;47.028;28.820;2023-04-27T03:17:32;100085.52;;;6.47;76.54
42067;BME280;27734;47.028;28.820;2023-04-27T03:20:00;100092.38;;;6.45;76.44
42067;BME280;27734;47.028;28.820;2023-04-27T03:22:31;100092.24;;;6.42;76.50
42067;BME280;27734;47.028;28.820;2023-04-27T03:24:59;100101.61;;;6.39;76.55
42067;BME280;27734;47.028;28.820;2023-04-27T03:27:28;100109.28;;;6.36;76.84
42067;BME280;27734;47.028;28.820;2023-04-27T03:29:56;100118.09;;;6.38;76.34
42067;BME280;27734;47.028;28.820;2023-04-27T03:32:25;100116.22;;;6.35;76.54
42067;BME280;27734;47.028;28.820;2023-04-27T03:34:55;100127.45;;;6.34;76.76
42067;BME280;27734;47.028;28.820;2023-04-27T03:37:24;100117.88;;;6.33;76.87
42067;BME280;27734;47.028;28.820;2023-04-27T03:39:54;100123.02;;;6.32;76.65
42067;BME280;27734;47.028;28.820;2023-04-27T03:42:23;100117.73;;;6.30;76.66
42067;BME280;27734;47.028;28.820;2023-04-27T03:44:52;100119.45;;;6.29;76.85
42067;BME280;27734;47.028;28.820;2023-04-27T03:47:21;100131.64;;;6.30;76.63
42067;BME280;27734;47.028;28.820;2023-04-27T03:49:49;100137.80;;;6.33;76.62
42067;BME280;27734;47.028;28.820;2023-04-27T03:52:18;100132.59;;;6.33;76.64
42067;BME280;27734;47.028;28.820;2023-04-27T03:54:47;100137.80;;;6.33;76.83
42067;BME280;27734;47.028;28.820;2023-04-27T03:57:16;100143.16;;;6.36;76.76
42067;BME280;27734;47.028;28.820;2023-04-27T03:59:45;100130.06;;;6.34;76.71
42067;BME280;27734;47.028;28.820;2023-04-27T04:02:14;100137.14;;;6.37;76.86
42067;BME280;27734;47.028;28.820;2023-04-27T04:04:43;100142.42;;;6.38;76.63
42067;BME280;27734;47.028;28.820;2023-04-27T04:07:11;100143.23;;;6.37;76.84
42067;BME280;27734;47.028;28.820;2023-04-27T04:09:40;100145.10;;;6.40;76.75
42067;BME280;27734;47.028;28.820;2023-04-27T04:12:10;100150.46;;;6.43;76.89
42067;BME280;27734;47.028;28.820;2023-04-27T04:14:40;100152.33;;;6.45;76.63
42067;BME280;27734;47.028;28.820;2023-04-27T04:17:11;100149.02;;;6.50;76.75
42067;BME280;27734;47.028;28.820;2023-04-27T04:19:43;100153.57;;;6.54;76.79
42067;BME280;27734;47.028;28.820;2023-04-27T04:22:12;100151.17;;;6.58;76.60
42067;BME280;27734;47.028;28.820;2023-04-27T04:24:40;100147.05;;;6.63;76.43
42067;BME280;27734;47.028;28.820;2023-04-27T04:27:09;100134.93;;;6.64;76.29
42067;BME280;27734;47.028;28.820;2023-04-27T04:29:37;100139.52;;;6.70;76.59
42067;BME280;27734;47.028;28.820;2023-04-27T04:32:06;100136.16;;;6.72;76.71
42067;BME280;27734;47.028;28.820;2023-04-27T04:34:38;100139.79;;;6.76;76.38
42067;BME280;27734;47.028;28.820;2023-04-27T04:37:06;100134.85;;;6.82;76.55
42067;BME280;27734;47.028;28.820;2023-04-27T04:39:35;100136.01;;;6.89;76.46
42067;BME280;27734;47.028;28.820;2023-04-27T04:42:04;100138.82;;;6.93;76.33
42067;BME280;27734;47.028;28.820;2023-04-27T04:44:34;100136.35;;;6.96;75.69
42067;BME280;27734;47.028;28.820;2023-04-27T04:47:04;100130.39;;;6.99;76.15
42067;BME280;27734;47.028;28.820;2023-04-27T04:49:33;100149.67;;;7.02;75.41
42067;BME280;27734;47.028;28.820;2023-04-27T04:52:01;100145.50;;;7.06;74.90
42067;BME280;27734;47.028;28.820;2023-04-27T04:54:31;100145.50;;;7.06;75.69
42067;BME280;27734;47.028;28.820;2023-04-27T04:56:59;100139.37;;;7.06;75.26
42067;BME280;27734;47.028;28.820;2023-04-27T04:59:32;100148.98;;;7.07;74.81
42067;BME280;27734;47.028;28.820;2023-04-27T05:02:01;100141.09;;;7.05;74.69
42067;BME280;27734;47.028;28.820;2023-04-27T05:04:30;100139.56;;;7.10;74.77
42067;BME280;27734;47.028;28.820;2023-04-27T05:06:59;100135.47;;;7.15;75.25
42067;BME280;27734;47.028;28.820;2023-04-27T05:09:27;100127.91;;;7.22;74.71
42067;BME280;27734;47.028;28.820;2023-04-27T05:11:56;100133.39;;;7.28;75.12
42067;BME280;27734;47.028;28.820;2023-04-27T05:14:24;100131.05;;;7.34;75.14
42067;BME280;27734;47.028;28.820;2023-04-27T05:16:53;100140.64;;;7.35;73.45
42067;BME280;27734;47.028;28.820;2023-04-27T05:19:21;100142.37;;;7.34;73.25
42067;BME280;27734;47.028;28.820;2023-04-27T05:21:52;100140.64;;;7.35;72.66
42067;BME280;27734;47.028;28.820;2023-04-27T05:24:20;100131.17;;;7.37;73.22
42067;BME280;27734;47.028;28.820;2023-04-27T05:26:50;100138.42;;;7.44;73.19
42067;BME280;27734;47.028;28.820;2023-04-27T05:29:18;100129.97;;;7.50;72.60
42067;BME280;27734;47.028;28.820;2023-04-27T05:31:47;100118.17;;;7.60;72.05
42067;BME280;27734;47.028;28.820;2023-04-27T05:34:16;100107.42;;;7.73;72.17
42067;BME280;27734;47.028;28.820;2023-04-27T05:36:55;100111.29;;;7.83;71.69
42067;BME280;27734;47.028;28.820;2023-04-27T05:39:56;100110.59;;;7.87;70.45
42067;BME280;27734;47.028;28.820;2023-04-27T05:42:58;100102.09;;;7.92;71.20
42067;BME280;27734;47.028;28.820;2023-04-27T05:45:28;100119.75;;;7.98;70.01
42067;BME280;27734;47.028;28.820;2023-04-27T05:47:58;100114.70;;;8.03;69.20
42067;BME280;27734;47.028;28.820;2023-04-27T05:50:41;100116.58;;;8.07;68.71
42067;BME280;27734;47.028;28.820;2023-04-27T05:53:44;100118.86;;;8.20;69.57
42067;BME280;27734;47.028;28.820;2023-04-27T05:56:18;100121.14;;;8.34;69.81
42067;BME280;27734;47.028;28.820;2023-04-27T05:58:48;100126.69;;;8.43;69.01
42067;BME280;27734;47.028;28.820;2023-04-27T06:01:19;100135.77;;;8.51;68.65
42067;BME280;27734;47.028;28.820;2023-04-27T06:04:04;100142.00;;;8.55;66.36
42067;BME280;27734;47.028;28.820;2023-04-27T06:06:35;100129.98;;;8.60;67.02
42067;BME280;27734;47.028;28.820;2023-04-27T06:09:04;100144.14;;;8.65;65.78
42067;BME280;27734;47.028;28.820;2023-04-27T06:11:40;100126.13;;;8.73;65.83
42067;BME280;27734;47.028;28.820;2023-04-27T06:14:30;100135.30;;;8.86;66.17
42067;BME280;27734;47.028;28.820;2023-04-27T06:17:09;100132.14;;;8.94;65.16
42067;BME280;27734;47.028;28.820;2023-04-27T06:19:43;100139.83;;;8.90;63.59
42067;BME280;27734;47.028;28.820;2023-04-27T06:22:23;100145.31;;;8.97;65.67
42067;BME280;27734;47.028;28.820;2023-04-27T06:25:08;100134.95;;;9.00;63.82
42067;BME280;27734;47.028;28.820;2023-04-27T06:27:44;100142.42;;;9.14;65.40
42067;BME280;27734;47.028;28.820;2023-04-27T06:30:20;100133.96;;;9.21;64.40
42067;BME280;27734;47.028;28.820;2023-04-27T06:32:52;100132.28;;;9.23;64.05
42067;BME280;27734;47.028;28.820;2023-04-27T06:35:22;100142.30;;;9.35;64.37
42067;BME280;27734;47.028;28.820;2023-04-27T06:37:51;100147.81;;;9.43;63.92
42067;BME280;27734;47.028;28.820;2023-04-27T06:40:20;100144.59;;;9.51;64.16
42067;BME280;27734;47.028;28.820;2023-04-27T06:43:01;100140.23;;;9.52;63.13
42067;BME280;27734;47.028;28.820;2023-04-27T06:45:51;100139.14;;;9.45;62.93
42067;BME280;27734;47.028;28.820;2023-04-27T06:48:41;100148.69;;;9.43;62.03
42067;BME280;27734;47.028;28.820;2023-04-27T06:51:22;100146.48;;;9.56;62.95
42067;BME280;27734;47.028;28.820;2023-04-27T06:53:58;100150.36;;;9.67;61.69
42067;BME280;27734;47.028;28.820;2023-04-27T06:59:30;100164.58;;;10.01;62.35
42067;BME280;27734;47.028;28.820;2023-04-27T07:04:43;100149.20;;;10.12;61.60
42067;BME280;27734;47.028;28.820;2023-04-27T07:07:22;100149.34;;;10.16;61.64
42067;BME280;27734;47.028;28.820;2023-04-27T07:09:56;100147.66;;;10.18;62.05
42067;BME280;27734;47.028;28.820;2023-04-27T07:12:35;100154.54;;;10.15;60.28
42067;BME280;27734;47.028;28.820;2023-04-27T07:15:09;100156.00;;;10.06;59.95
42067;BME280;27734;47.028;28.820;2023-04-27T07:17:42;100153.95;;;9.96;59.71
42067;BME280;27734;47.028;28.820;2023-04-27T07:20:13;100151.52;;;10.02;61.46
42067;BME280;27734;47.028;28.820;2023-04-27T07:22:43;100155.77;;;10.26;60.94
42067;BME280;27734;47.028;28.820;2023-04-27T07:25:24;100158.16;;;10.46;59.09
42067;BME280;27734;47.028;28.820;2023-04-27T07:27:54;100150.81;;;10.64;59.79
42067;BME280;27734;47.028;28.820;2023-04-27T07:30:26;100151.09;;;10.73;56.53
42067;BME280;27734;47.028;28.820;2023-04-27T07:32:57;100150.16;;;10.71;55.66
42067;BME280;27734;47.028;28.820;2023-04-27T07:35:34;100143.72;;;10.60;57.39
42067;BME280;27734;47.028;28.820;2023-04-27T07:41:27;100142.42;;;10.46;55.29
42067;BME280;27734;47.028;28.820;2023-04-27T07:44:02;100146.57;;;10.68;56.27
42067;BME280;27734;47.028;28.820;2023-04-27T07:46:34;100150.52;;;10.84;55.38
42067;BME280;27734;47.028;28.820;2023-04-27T07:49:14;100144.44;;;11.17;54.30
42067;BME280;27734;47.028;28.820;2023-04-27T07:51:43;100150.70;;;11.22;51.58
42067;BME280;27734;47.028;28.820;2023-04-27T07:54:29;100143.03;;;11.29;53.67
42067;BME280;27734;47.028;28.820;2023-04-27T07:57:10;100155.78;;;11.15;53.69
42067;BME280;27734;47.028;28.820;2023-04-27T08:00:21;100171.09;;;10.99;52.27
42067;BME280;27734;47.028;28.820;2023-04-27T08:03:25;100152.45;;;11.21;52.73
42067;BME280;27734;47.028;28.820;2023-04-27T08:06:00;100158.53;;;11.52;53.65
42067;BME280;27734;47.028;28.820;2023-04-27T08:08:49;100152.61;;;11.61;52.99
42067;BME280;27734;47.028;28.820;2023-04-27T08:11:32;100160.08;;;11.44;50.88
42067;BME280;27734;47.028;28.820;2023-04-27T08:14:11;100172.92;;;11.33;50.51
42067;BME280;27734;47.028;28.820;2023-04-27T08:16:49;100165.00;;;11.31;50.43
42067;BME280;27734;47.028;28.820;2023-04-27T08:19:29;100172.30;;;11.43;51.78
42067;BME280;27734;47.028;28.820;2023-04-27T08:21:59;100163.75;;;11.50;52.21
42067;BME280;27734;47.028;28.820;2023-04-27T08:24:45;100160.00;;;11.41;52.17
42067;BME280;27734;47.028;28.820;2023-04-27T08:27:20;100170.50;;;11.41;51.24
42067;BME280;27734;47.028;28.820;2023-04-27T08:30:07;100167.38;;;11.56;52.31
42067;BME280;27734;47.028;28.820;2023-04-27T08:32:36;100166.22;;;11.79;50.05
42067;BME280;27734;47.028;28.820;2023-04-27T08:35:08;100164.74;;;11.89;50.01
42067;BME280;27734;47.028;28.820;2023-04-27T08:37:38;100165.73;;;11.93;49.08
42067;BME280;27734;47.028;28.820;2023-04-27T08:40:11;100171.87;;;11.93;49.07
42067;BME280;27734;47.028;28.820;2023-04-27T08:42:53;100167.37;;;11.89;49.52
42067;BME280;27734;47.028;28.820;2023-04-27T08:45:24;100161.23;;;11.90;49.71
42067;BME280;27734;47.028;28.820;2023-04-27T08:47:56;100142.72;;;11.85;51.12
42067;BME280;27734;47.028;28.820;2023-04-27T08:50:28;100170.17;;;11.62;49.59
42067;BME280;27734;47.028;28.820;2023-04-27T08:53:02;100165.75;;;11.61;49.51
42067;BME280;27734;47.028;28.820;2023-04-27T08:55:32;100156.03;;;11.57;50.54
42067;BME280;27734;47.028;28.820;2023-04-27T08:58:02;100162.08;;;11.54;50.14
42067;BME280;27734;47.028;28.820;2023-04-27T09:00:42;100166.30;;;11.47;50.03
42067;BME280;27734;47.028;28.820;2023-04-27T09:03:26;100157.12;;;11.31;50.18
42067;BME280;27734;47.028;28.820;2023-04-27T09:06:43;100169.00;;;11.19;50.24
42067;BME280;27734;47.028;28.820;2023-04-27T09:09:32;100162.20;;;11.25;50.60
42067;BME280;27734;47.028;28.820;2023-04-27T09:12:18;100164.09;;;11.31;51.12
42067;BME280;27734;47.028;28.820;2023-04-27T09:14:59;100167.92;;;11.42;51.07
42067;BME280;27734;47.028;28.820;2023-04-27T09:17:44;100175.92;;;11.47;50.80
42067;BME280;27734;47.028;28.820;2023-04-27T09:23:31;100173.88;;;11.37;50.54
42067;BME280;27734;47.028;28.820;2023-04-27T09:26:28;100152.36;;;11.18;51.29
42067;BME280;27734;47.028;28.820;2023-04-27T09:29:34;100175.87;;;11.13;50.48
42067;BME280;27734;47.028;28.820;2023-04-27T09:32:47;100184.36;;;11.03;50.84
42067;BME280;27734;47.028;28.820;2023-04-27T09:35:33;100171.33;;;11.08;51.48
42067;BME280;27734;47.028;28.820;2023-04-27T09:38:06;100180.86;;;11.04;51.12
42067;BME280;27734;47.028;28.820;2023-04-27T09:40:50;100182.65;;;11.05;51.43
42067;BME280;27734;47.028;28.820;2023-04-27T09:43:24;100183.13;;;11.22;51.88
42067;BME280;27734;47.028;28.820;2023-04-27T09:46:02;100185.02;;;11.28;51.44
42067;BME280;27734;47.028;28.820;2023-04-27T09:48:40;100179.02;;;11.32;51.28
42067;BME280;27734;47.028;28.820;2023-04-27T09:51:13;100192.10;;;11.30;51.73
42067;BME280;27734;47.028;28.820;2023-04-27T09:53:50;100183.30;;;11.28;51.97
42067;BME280;27734;47.028;28.820;2023-04-27T09:56:29;100183.22;;;11.25;51.70
42067;BME280;27734;47.028;28.820;2023-04-27T09:59:29;100187.38;;;11.19;51.51
42067;BME280;27734;47.028;28.820;2023-04-27T10:02:23;100186.55;;;11.20;51.46
42067;BME280;27734;47.028;28.820;2023-04-27T10:05:20;100188.42;;;11.24;51.43
42067;BME280;27734;47.028;28.820;2023-04-27T10:07:53;100183.00;;;11.18;51.09
42067;BME280;27734;47.028;28.820;2023-04-27T10:10:40;100186.37;;;11.13;51.05
42067;BME280;27734;47.028;28.820;2023-04-27T10:13:36;100183.62;;;11.09;51.36
42067;BME280;27734;47.028;28.820;2023-04-27T10:16:21;100185.32;;;11.07;51.08
42067;BME280;27734;47.028;28.820;2023-04-27T10:18:54;100194.86;;;11.03;51.29
42067;BME280;27734;47.028;28.820;2023-04-27T10:21:39;100207.98;;;11.03;51.46
42067;BME280;27734;47.028;28.820;2023-04-27T10:24:38;100197.44;;;11.02;51.58
42067;BME280;27734;47.028;28.820;2023-04-27T10:27:08;100203.34;;;10.94;51.18
42067;BME280;27734;47.028;28.820;2023-04-27T10:29:43;100199.84;;;10.94;51.28
42067;BME280;27734;47.028;28.820;2023-04-27T10:32:19;100206.10;;;10.99;51.07
42067;BME280;27734;47.028;28.820;2023-04-27T10:34:51;100210.56;;;11.02;50.41
42067;BME280;27734;47.028;28.820;2023-04-27T10:37:44;100207.16;;;11.06;51.20
42067;BME280;27734;47.028;28.820;2023-04-27T10:40:15;100211.67;;;11.10;51.62
42067;BME280;27734;47.028;28.820;2023-04-27T10:42:48;100203.75;;;11.08;51.51
42067;BME280;27734;47.028;28.820;2023-04-27T10:45:30;100199.41;;;11.10;51.34
42067;BME280;27734;47.028;28.820;2023-04-27T10:48:17;100208.17;;;11.11;51.25
42067;BME280;27734;47.028;28.820;2023-04-27T10:50:58;100204.36;;;11.30;51.88
42067;BME280;27734;47.028;28.820;2023-04-27T10:53:34;100208.12;;;11.40;50.85
42067;BME280;27734;47.028;28.820;2023-04-27T10:56:13;100211.41;;;11.32;50.43
42067;BME280;27734;47.028;28.820;2023-04-27T10:59:01;100209.95;;;11.42;51.41
42067;BME280;27734;47.028;28.820;2023-04-27T11:01:31;100217.13;;;11.49;50.73
42067;BME280;27734;47.028;28.820;2023-04-27T11:04:03;100202.66;;;11.65;50.93
42067;BME280;27734;47.028;28.820;2023-04-27T11:06:51;100214.09;;;11.66;49.20
42067;BME280;27734;47.028;28.820;2023-04-27T11:09:26;100202.03;;;11.74;49.46
42067;BME280;27734;47.028;28.820;2023-04-27T11:11:55;100216.25;;;11.82;49.85
42067;BME280;27734;47.028;28.820;2023-04-27T11:14:26;100211.16;;;11.88;50.01
42067;BME280;27734;47.028;28.820;2023-04-27T11:16:56;100210.12;;;11.82;49.25
42067;BME280;27734;47.028;28.820;2023-04-27T11:19:29;100205.50;;;11.73;49.13
42067;BME280;27734;47.028;28.820;2023-04-27T11:22:07;100219.51;;;11.72;49.49
42067;BME280;27734;47.028;28.820;2023-04-27T11:24:48;100211.91;;;11.83;49.72
42067;BME280;27734;47.028;28.820;2023-04-27T11:27:17;100215.77;;;11.96;49.42
42067;BME280;27734;47.028;28.820;2023-04-27T11:29:49;100206.24;;;12.01;49.06
42067;BME280;27734;47.028;28.820;2023-04-27T11:32:23;100213.09;;;11.94;48.08
42067;BME280;27734;47.028;28.820;2023-04-27T11:34:54;100206.81;;;11.89;48.15
42067;BME280;27734;47.028;28.820;2023-04-27T11:37:27;100213.97;;;11.95;48.10
42067;BME280;27734;47.028;28.820;2023-04-27T11:39:59;100218.31;;;11.93;48.15
42067;BME280;27734;47.028;28.820;2023-04-27T11:42:29;100207.80;;;11.93;48.74
42067;BME280;27734;47.028;28.820;2023-04-27T11:44:59;100212.22;;;11.94;48.45
42067;BME280;27734;47.028;28.820;2023-04-27T11:47:32;100202.70;;;11.99;48.73
42067;BME280;27734;47.028;28.820;2023-04-27T11:50:03;100202.70;;;11.99;49.12
42067;BME280;27734;47.028;28.820;2023-04-27T11:52:37;100202.62;;;11.96;48.46
42067;BME280;27734;47.028;28.820;2023-04-27T11:55:11;100199.27;;;12.01;48.61
42067;BME280;27734;47.028;28.820;2023-04-27T11:57:57;100203.08;;;12.14;49.08
42067;BME280;27734;47.028;28.820;2023-04-27T12:00:48;100208.38;;;12.16;48.92
42067;BME280;27734;47.028;28.820;2023-04-27T12:03:28;100204.77;;;12.12;48.86
42067;BME280;27734;47.028;28.820;2023-04-27T12:06:11;100200.87;;;11.96;48.74
42067;BME280;27734;47.028;28.820;2023-04-27T12:08:49;100203.23;;;11.87;48.73
42067;BME280;27734;47.028;28.820;2023-04-27T12:11:21;100202.58;;;11.94;48.96
42067;BME280;27734;47.028;28.820;2023-04-27T12:13:56;100205.21;;;11.94;48.60
42067;BME280;27734;47.028;28.820;2023-04-27T12:16:39;100213.56;;;12.13;48.67
42067;BME280;27734;47.028;28.820;2023-04-27T12:19:09;100207.27;;;12.06;47.76
42067;BME280;27734;47.028;28.820;2023-04-27T12:21:41;100211.50;;;12.01;47.50
42067;BME280;27734;47.028;28.820;2023-04-27T12:24:19;100214.02;;;11.96;47.72
42067;BME280;27734;47.028;28.820;2023-04-27T12:26:47;100215.61;;;11.91;47.93
42067;BME280;27734;47.028;28.820;2023-04-27T12:29:17;100204.64;;;12.06;48.50
42067;BME280;27734;47.028;28.820;2023-04-27T12:31:47;100209.30;;;12.18;47.79
42067;BME280;27734;47.028;28.820;2023-04-27T12:34:25;100217.34;;;12.24;47.35
42067;BME280;27734;47.028;28.820;2023-04-27T12:36:57;100226.83;;;12.17;46.76
42067;BME280;27734;47.028;28.820;2023-04-27T12:39:27;100214.02;;;12.31;47.00
42067;BME280;27734;47.028;28.820;2023-04-27T12:41:57;100204.62;;;12.43;48.07
42067;BME280;27734;47.028;28.820;2023-04-27T12:44:29;100220.63;;;12.52;47.18
42067;BME280;27734;47.028;28.820;2023-04-27T12:47:10;100219.53;;;12.42;46.97
42067;BME280;27734;47.028;28.820;2023-04-27T12:49:44;100207.22;;;12.41;47.42
42067;BME280;27734;47.028;28.820;2023-04-27T12:52:21;100217.09;;;12.50;48.20
42067;BME280;27734;47.028;28.820;2023-04-27T12:54:52;100230.02;;;12.40;47.22
42067;BME280;27734;47.028;28.820;2023-04-27T12:57:25;100223.48;;;12.25;47.53
42067;BME280;27734;47.028;28.820;2023-04-27T12:59:55;100232.85;;;12.13;47.80
42067;BME280;27734;47.028;28.820;2023-04-27T13:02:26;100214.55;;;12.18;47.99
42067;BME280;27734;47.028;28.820;2023-04-27T13:05:02;100233.16;;;12.26;47.90
42067;BME280;27734;47.028;28.820;2023-04-27T13:07:44;100232.77;;;12.10;47.61
42067;BME280;27734;47.028;28.820;2023-04-27T13:10:14;100230.37;;;12.19;47.67
42067;BME280;27734;47.028;28.820;2023-04-27T13:12:48;100236.52;;;12.20;47.59
42067;BME280;27734;47.028;28.820;2023-04-27T13:15:19;100262.82;;;12.20;46.96
42067;BME280;27734;47.028;28.820;2023-04-27T13:17:57;100237.62;;;12.28;46.90
42067;BME280;27734;47.028;28.820;2023-04-27T13:20:28;100251.95;;;12.41;47.28
42067;BME280;27734;47.028;28.820;2023-04-27T13:23:07;100231.63;;;12.35;47.66
42067;BME280;27734;47.028;28.820;2023-04-27T13:25:36;100234.48;;;12.45;47.27
42067;BME280;27734;47.028;28.820;2023-04-27T13:28:09;100239.02;;;12.50;47.15
42067;BME280;27734;47.028;28.820;2023-04-27T13:30:41;100239.09;;;12.53;47.00
42067;BME280;27734;47.028;28.820;2023-04-27T13:33:14;100227.50;;;12.45;46.99